Sunday, April 22, 2018, 1:02 AM GMT
Back to Local

CYQM, Moncton, N. B.

Location: , , Canada Lat: 46.117
Local Time: 1:02 AM GMT ( 1:02 GMT) Lon: -64.683
Time Zone: GMT Elev: 232 ft

Show me the last for .
Show Decoded

2018-04-22 00:13 METAR CYQM 220013Z VRB02KT 15SM BKN095 02/M07 A3008 RMK AC6 SLP192 =
2018-04-22 00:00 METAR CYQM 220000Z VRB02KT 15SM SCT092 BKN260 03/M07 A3008 RMK AC3CI2 SLP191 =
2018-04-21 23:00 METAR CYQM 212300Z 04003KT 15SM FEW110 BKN250 02/M07 A3006 RMK AC2CI3 SLP183 =
2018-04-21 22:43 METAR CYQM 212243Z 04004KT 15SM FEW073 BKN250 02/M07 A3005 RMK AC2CI3 SLP181 =
2018-04-21 22:00 METAR CYQM 212200Z 03009KT 15SM FEW073 SCT100 BKN240 04/M06 A3003 RMK AC2AC2CI2
                 SLP176 =
2018-04-21 21:00 METAR CYQM 212100Z 03008KT 15SM FEW072 BKN095 BKN260 05/M05 A3003 RMK AC1AC5CI2
                 AC TR SLP173 =
2018-04-21 20:00 METAR CYQM 212000Z 03010KT 15SM FEW041 FEW072 BKN100 BKN260 05/M05 A3002 RMK
                 CU1AC1AC5CI2 CU TR AC TR SLP169 =
2018-04-21 19:00 METAR CYQM 211900Z 03013KT 15SM FEW063 SCT110 SCT260 06/M05 A3000 RMK SC2AC1CI1
                 SLP164 =
2018-04-21 18:00 METAR CYQM 211800Z 33014G19KT 15SM FEW063 SCT260 08/M06 A3000 RMK ST2CI1 SLP162
                 =
2018-04-21 17:00 METAR CYQM 211700Z 29008G18KT 250V320 15SM FEW058 SCT260 07/M07 A3000 RMK SC2CI1
                 SLP164 =
2018-04-21 16:00 METAR CYQM 211600Z 34012G20KT 15SM FEW046 06/M06 A3001 RMK SC2 SLP166 =
2018-04-21 15:00 METAR CYQM 211500Z 33012G19KT 280V340 15SM FEW042 05/M03 A3002 RMK CU2 SLP170 =
2018-04-21 14:00 METAR CYQM 211400Z 31011KT 15SM FEW034 SCT260 04/M04 A3003 RMK CU2CI1 SLP173 =
2018-04-21 13:00 METAR CYQM 211300Z 31013KT 15SM FEW022 SCT260 03/M03 A3003 RMK CU1CI2 SLP175 =
2018-04-21 12:00 METAR CYQM 211200Z 29012KT 15SM FEW050 FEW260 02/M02 A3003 RMK SC1CI2 SC TR
                 SLP174 =
2018-04-21 11:00 METAR CYQM 211100Z 27009KT 15SM FEW050 FEW260 M00/M02 A3002 RMK SC1CI2 SC TR
                 SLP171 =
2018-04-21 10:00 METAR CYQM 211000Z 27007KT 15SM FEW050 FEW260 M01/M03 A3001 RMK SC1CI1 SLP167 =
2018-04-21 09:00 METAR CYQM 210900Z 26006KT 15SM FEW050 FEW250 M01/M02 A3000 RMK SC1CI1 SLP164 =
2018-04-21 08:00 METAR CYQM 210800Z 27005KT 15SM SCT032 OVC041 M00/M01 A3000 RMK SC3SC5 SLP163 =
2018-04-21 07:00 METAR CYQM 210700Z 23005KT 15SM FEW024 OVC051 M01/M01 A2999 RMK SC1SC7 SLP162 =
2018-04-21 06:33 METAR CYQM 210633Z 24004KT 15SM FEW004 FEW030 OVC049 M01/M01 A2999 RMK SF1SC2SC6
                 SF TR SLP160 =
2018-04-21 06:00 METAR CYQM 210600Z 21004KT 15SM -SN SCT004 SCT008 BKN032 OVC047 M01/M01 A2999
                 RMK SF3SF1SC1SC3 SLP160 =
2018-04-21 05:53 METAR CYQM 210553Z 24004KT 15SM -SN SCT003 BKN008 OVC046 M01/M01 A2998 RMK
                 SF3SF2SC3 SLP159 =
2018-04-21 05:25 METAR CYQM 210525Z 26003KT 230V310 15SM -SN BKN003 OVC008 M01/M01 A2998 RMK
                 SF7SF1 SLP159 =
2018-04-21 05:00 METAR CYQM 210500Z 27003KT 8SM -SN FEW007 OVC012 M01/M01 A2999 RMK SF2SC6 SLP160
                 =
2018-04-21 04:36 METAR CYQM 210436Z 24004KT 8SM -SN FEW006 BKN011 OVC019 M01/M01 A2999 RMK
                 SF1SC5SC2 SLP161 =
2018-04-21 04:00 METAR CYQM 210400Z 00000KT 15SM -SN FEW005 SCT015 BKN025 OVC050 M01/M02 A2999
                 RMK SF1SF3SC3SC1 /S01/ SLP160 =
2018-04-21 03:49 METAR CYQM 210349Z 23002KT 15SM -SN FEW005 SCT015 BKN026 OVC055 M01/M02 A2999
                 RMK SF1SC3SC3SC1 SLP161 =
2018-04-21 03:08 METAR CYQM 210308Z 30002KT 15SM -SN FEW002 BKN005 OVC017 M01/M01 A2999 RMK
                 SF1SF4SC3 SLP160 =
2018-04-21 03:00 METAR CYQM 210300Z 29002KT 12SM -SN FEW004 OVC019 M01/M01 A2999 RMK SF1SC7
                 SLP161 =
2018-04-21 02:41 METAR CYQM 210241Z 31003KT 6SM -SN FEW004 OVC021 M01/M02 A2999 RMK SF1SC7 SLP160
                 =
2018-04-21 02:25 METAR CYQM 210225Z 29004KT 2SM -SN SCT004 OVC023 M01/M01 A2999 RMK SF3SC5 SLP160
                 =
2018-04-21 02:00 METAR CYQM 210200Z 30003KT 5SM -SN FEW004 BKN007 OVC022 M01/M02 A2998 RMK
                 SF2SF3SC3 SLP158 =
2018-04-21 01:53 METAR CYQM 210153Z 30004KT 2 1/2SM -SN FEW004 OVC022 M01/M02 A2998 RMK SF2SC6
                 SLP157 =
2018-04-21 01:39 METAR CYQM 210139Z 32003KT 1 1/2SM -SN VV016 M01/M02 A2998 RMK SN8 SLP156 =

Support USWX by starting your Amazon purchase here.